.
WxDataArchive / Data Records for 2010-03-14
2010-03-13 March 2010 2010-03-15

Data Records for Sunday, 14 March 2010

Time	Temp	Chill	HIndex	Humid	Dewpt	 Wind 	HiWind	WindDir	Rain 	Barom 
-----	----	-----	------	-----	-----	------	------	-------	-----	----- 
00:00	39.1	36.3	39.1	92	37.0	4	9	22	0.00	29.534 
00:05	39.2	39.2	39.2	92	37.1	3	9	45	0.00	29.534 
00:10	39.2	39.2	39.2	92	37.1	2	4	112	0.00	29.534 
00:15	39.2	39.2	39.2	92	37.1	3	14	68	0.00	29.540 
00:20	39.1	36.3	39.1	92	37.0	4	15	45	0.00	29.540 
00:25	39.2	39.2	39.2	92	37.1	3	11	112	0.00	29.540 
00:30	39.2	39.2	39.2	92	37.1	3	7	90	0.00	29.541 
00:35	39.2	39.2	39.2	92	37.1	3	10	68	0.00	29.541 
00:40	39.1	39.1	39.1	92	37.0	3	11	68	0.00	29.541 
00:45	39.1	36.3	39.1	92	37.0	4	13	22	0.00	29.537 
00:50	39.1	39.1	39.1	92	37.0	2	9	90	0.00	29.537 
00:55	39.1	39.1	39.1	92	37.0	2	7	112	0.00	29.537 
01:00	38.9	38.9	38.9	92	36.8	2	9	68	0.01	29.538 
01:05	38.8	38.8	38.8	92	36.7	3	8	90	0.00	29.538 
01:10	38.8	38.8	38.8	93	37.0	3	11	68	0.00	29.538 
01:15	38.8	38.8	38.8	93	37.0	3	9	45	0.00	29.544 
01:20	38.6	38.6	38.6	93	36.8	3	12	45	0.00	29.544 
01:25	38.5	35.6	38.5	93	36.7	4	13	112	0.00	29.544 
01:30	38.3	34.5	38.3	93	36.5	5	17	90	0.00	29.551 
01:35	38.2	34.4	38.2	93	36.4	5	16	112	0.00	29.551 
01:40	38.0	34.1	38.0	92	35.9	5	13	45	0.00	29.551 
01:45	38.0	35.0	38.0	92	35.9	4	14	112	0.00	29.552 
01:50	38.0	33.4	38.0	92	35.9	6	18	90	0.00	29.552 
01:55	38.0	34.1	38.0	91	35.6	5	14	112	0.00	29.552 
03:00	38.0	34.1	38.0	91	35.6	5	14	22	0.00	29.553 
03:05	37.8	37.8	37.8	92	35.7	2	6	22	0.00	29.564 
03:10	37.8	37.8	37.8	92	35.7	3	11	68	0.00	29.564 
03:15	37.8	37.8	37.8	92	35.7	2	9	112	0.00	29.560 
03:20	37.8	37.8	37.8	92	35.7	3	10	135	0.00	29.560 
03:25	37.8	37.8	37.8	91	35.4	3	9	90	0.00	29.560 
03:30	37.8	37.8	37.8	91	35.4	3	11	90	0.00	29.556 
03:35	37.8	37.8	37.8	90	35.1	1	6	135	0.00	29.556 
03:40	37.9	37.9	37.9	90	35.2	2	5	90	0.00	29.556 
03:45	37.9	37.9	37.9	90	35.2	1	7	45	0.00	29.561 
03:50	38.0	38.0	38.0	90	35.3	2	6	68	0.00	29.561 
03:55	37.9	37.9	37.9	90	35.2	2	6	90	0.00	29.561 
04:00	37.9	37.9	37.9	90	35.2	1	5	45	0.00	29.563 
04:05	37.9	37.9	37.9	90	35.2	2	5	112	0.00	29.563 
04:10	37.9	37.9	37.9	90	35.2	2	11	112	0.00	29.563 
04:15	37.9	37.9	37.9	90	35.2	2	5	45	0.00	29.560 
04:20	37.9	37.9	37.9	89	35.0	1	7	112	0.00	29.560 
04:25	37.9	37.9	37.9	89	35.0	1	6	0	0.00	29.560 
04:30	37.9	37.9	37.9	89	35.0	2	5	158	0.00	29.563 
04:35	37.9	37.9	37.9	89	35.0	2	6	112	0.00	29.563 
05:40	37.9	37.9	37.9	88	34.7	2	6	45	0.00	29.563 
05:45	38.0	38.0	38.0	88	34.8	2	5	68	0.00	29.568 
05:50	38.0	38.0	38.0	88	34.8	1	6	202	0.00	29.568 
05:55	38.0	38.0	38.0	88	34.8	2	7	68	0.00	29.568 
06:00	38.2	38.2	38.2	88	35.0	2	9	68	0.00	29.577 
06:05	38.2	38.2	38.2	88	35.0	2	6	112	0.00	29.577 
06:10	38.2	38.2	38.2	88	35.0	1	7	68	0.00	29.577 
06:15	38.2	38.2	38.2	88	35.0	2	6	22	0.00	29.583 
06:20	38.2	38.2	38.2	88	35.0	1	4	90	0.00	29.583 
06:25	38.2	38.2	38.2	88	35.0	2	4	45	0.00	29.583 
06:30	38.2	38.2	38.2	88	35.0	2	6	45	0.00	29.584 
06:35	38.3	38.3	38.3	88	35.1	2	6	45	0.00	29.584 
06:40	38.3	38.3	38.3	87	34.8	2	5	68	0.00	29.584 
06:45	38.3	38.3	38.3	88	35.1	1	5	112	0.00	29.591 
06:50	38.3	38.3	38.3	88	35.1	1	4	135	0.00	29.591 
06:55	38.3	38.3	38.3	88	35.1	2	4	68	0.00	29.591 
07:00	38.3	38.3	38.3	88	35.1	1	5	45	0.00	29.598 
07:05	38.5	38.5	38.5	88	35.3	2	5	22	0.00	29.598 
07:10	38.5	38.5	38.5	88	35.3	2	5	68	0.00	29.598 
07:15	38.5	38.5	38.5	87	35.0	2	5	68	0.00	29.599 
07:20	38.5	38.5	38.5	87	35.0	2	5	45	0.00	29.599 
07:25	38.5	38.5	38.5	87	35.0	2	5	68	0.00	29.599 
07:30	38.5	38.5	38.5	87	35.0	1	4	45	0.00	29.602 
07:35	38.5	38.5	38.5	87	35.0	2	5	90	0.00	29.602 
07:40	38.5	38.5	38.5	87	35.0	2	5	90	0.00	29.602 
07:45	38.6	38.6	38.6	87	35.1	2	6	68	0.00	29.612 
07:50	38.6	38.6	38.6	87	35.1	1	4	90	0.00	29.612 
07:55	38.6	38.6	38.6	87	35.1	2	4	22	0.00	29.612 
08:00	38.6	38.6	38.6	86	34.8	2	7	90	0.00	29.614 
08:05	38.6	38.6	38.6	86	34.8	2	4	45	0.00	29.614 
08:10	38.6	38.6	38.6	86	34.8	2	4	68	0.00	29.614 
08:15	38.6	38.6	38.6	86	34.8	1	4	68	0.00	29.620 
08:20	38.6	38.6	38.6	86	34.8	2	7	112	0.00	29.620 
08:25	38.6	38.6	38.6	86	34.8	2	6	90	0.00	29.620 
08:30	38.6	38.6	38.6	86	34.8	2	6	68	0.00	29.623 
08:35	38.6	38.6	38.6	86	34.8	2	6	112	0.00	29.623 
08:40	38.6	38.6	38.6	86	34.8	2	6	22	0.00	29.623 
08:45	38.8	38.8	38.8	86	35.0	2	5	90	0.00	29.625 
08:50	38.8	38.8	38.8	86	35.0	0	2	90	0.00	29.625 
08:55	38.8	38.8	38.8	86	35.0	0	2	315	0.00	29.625 
09:00	38.8	38.8	38.8	86	35.0	1	6	90	0.00	29.630 
09:05	38.8	38.8	38.8	87	35.3	1	4	112	0.00	29.630 
09:10	38.8	38.8	38.8	87	35.3	1	5	112	0.00	29.630 
09:15	38.9	38.9	38.9	87	35.4	1	5	45	0.00	29.632 
09:20	38.9	38.9	38.9	87	35.4	1	4	68	0.00	29.632 
09:25	38.9	38.9	38.9	87	35.4	2	6	68	0.00	29.632 
09:30	38.9	38.9	38.9	87	35.4	1	5	22	0.00	29.635 
09:35	38.9	38.9	38.9	87	35.4	1	6	68	0.00	29.635 
09:40	38.9	38.9	38.9	86	35.1	2	7	22	0.00	29.635 
09:45	39.1	39.1	39.1	86	35.3	2	5	90	0.00	29.646 
09:50	39.1	39.1	39.1	85	35.0	1	5	90	0.00	29.646 
09:55	39.2	39.2	39.2	85	35.1	2	6	112	0.00	29.646 
10:00	39.2	39.2	39.2	84	34.8	2	9	68	0.00	29.649 
10:05	39.3	39.3	39.3	84	34.9	2	6	90	0.00	29.649 
10:10	39.5	39.5	39.5	84	35.1	2	9	45	0.00	29.649 
10:15	39.5	39.5	39.5	84	35.1	1	5	68	0.00	29.651 
10:20	39.6	39.6	39.6	84	35.2	1	7	338	0.00	29.651 
10:25	39.8	39.8	39.8	84	35.4	1	6	338	0.00	29.651 
10:30	39.8	39.8	39.8	84	35.4	2	5	112	0.00	29.655 
10:35	39.8	39.8	39.8	84	35.4	1	5	112	0.00	29.655 
10:40	39.8	39.8	39.8	83	35.1	2	7	68	0.00	29.655 
10:45	39.8	39.8	39.8	83	35.1	2	6	22	0.00	29.663 
10:50	39.8	39.8	39.8	83	35.1	2	5	112	0.00	29.663 
10:55	39.9	39.9	39.9	84	35.5	1	7	22	0.00	29.663 
11:00	39.9	39.9	39.9	83	35.2	2	6	45	0.00	29.670 
11:05	39.9	39.9	39.9	83	35.2	1	4	90	0.00	29.670 
11:10	40.1	40.1	40.1	83	35.4	1	5	0	0.00	29.670 
11:15	40.1	40.1	40.1	83	35.4	1	4	90	0.00	29.676 
11:20	40.1	40.1	40.1	83	35.4	2	10	45	0.00	29.676 
11:25	40.2	40.2	40.2	83	35.5	2	6	112	0.00	29.676 
11:30	40.2	40.2	40.2	83	35.5	2	6	68	0.00	29.678 
11:35	40.3	40.3	40.3	82	35.2	2	6	45	0.00	29.678 
11:40	40.3	40.3	40.3	82	35.2	2	5	0	0.00	29.678 
11:45	40.3	40.3	40.3	82	35.2	1	5	45	0.00	29.680 
11:50	40.5	40.5	40.5	81	35.1	2	11	45	0.00	29.680 
11:55	40.5	40.5	40.5	81	35.1	2	9	22	0.00	29.680 
12:00	40.5	40.5	40.5	81	35.1	3	10	22	0.00	29.686 
12:05	40.6	40.6	40.6	82	35.5	1	7	68	0.00	29.686 
12:10	40.6	40.6	40.6	81	35.2	2	7	90	0.00	29.686 
12:15	40.6	40.6	40.6	81	35.2	1	3	22	0.00	29.691 
12:20	40.9	40.9	40.9	81	35.5	1	5	45	0.00	29.691 
12:25	41.1	41.1	41.1	81	35.7	1	5	68	0.00	29.691 
12:30	41.1	41.1	41.1	80	35.4	3	6	68	0.00	29.694 
12:35	41.2	41.2	41.2	80	35.5	3	7	112	0.00	29.694 
12:40	41.2	41.2	41.2	80	35.5	2	6	45	0.00	29.694 
12:45	41.2	41.2	41.2	80	35.5	2	6	112	0.00	29.698 
12:50	41.2	41.2	41.2	80	35.5	2	7	112	0.00	29.698 
12:55	41.3	41.3	41.3	80	35.6	2	10	68	0.00	29.698 
13:00	41.3	41.3	41.3	80	35.6	2	6	0	0.00	29.704 
13:05	41.2	41.2	41.2	80	35.5	1	5	45	0.00	29.704 
13:10	41.2	41.2	41.2	79	35.2	1	5	22	0.00	29.704 
13:15	41.3	41.3	41.3	80	35.6	1	6	158	0.00	29.707 
13:20	41.5	41.5	41.5	80	35.8	2	6	112	0.00	29.707 
13:25	41.5	41.5	41.5	79	35.5	2	6	22	0.00	29.707 
13:30	41.6	41.6	41.6	80	35.9	2	6	90	0.00	29.709 
13:35	41.8	41.8	41.8	80	36.1	1	6	0	0.00	29.709 
13:40	41.9	41.9	41.9	79	35.9	1	6	68	0.00	29.709 
13:45	41.9	41.9	41.9	80	36.2	2	9	68	0.00	29.709 
13:50	41.9	41.9	41.9	79	35.9	2	6	112	0.00	29.709 
13:55	41.9	41.9	41.9	80	36.2	2	5	45	0.00	29.709 
14:00	41.9	41.9	41.9	80	36.2	1	6	45	0.00	29.709 
14:05	42.1	42.1	42.1	80	36.4	1	5	338	0.00	29.709 
14:10	42.2	42.2	42.2	79	36.2	3	7	68	0.00	29.709 
14:15	42.1	42.1	42.1	78	35.7	2	6	135	0.00	29.718 
14:20	41.9	41.9	41.9	79	35.9	2	7	135	0.00	29.718 
14:25	41.8	41.8	41.8	80	36.1	1	4	90	0.00	29.718 
14:30	41.9	41.9	41.9	80	36.2	1	4	22	0.00	29.714 
14:35	42.1	42.1	42.1	79	36.1	2	7	22	0.00	29.714 
14:40	42.2	42.2	42.2	79	36.2	1	5	90	0.00	29.714 
14:45	42.2	42.2	42.2	79	36.2	0	4	22	0.00	29.719 
14:50	42.1	42.1	42.1	79	36.1	2	6	112	0.00	29.719 
14:55	41.9	41.9	41.9	80	36.2	1	4	22	0.00	29.719 
15:00	41.9	41.9	41.9	80	36.2	2	6	112	0.00	29.720 
15:05	41.8	41.8	41.8	80	36.1	1	7	68	0.00	29.720 
15:10	41.8	41.8	41.8	80	36.1	1	6	45	0.00	29.720 
15:15	41.8	41.8	41.8	80	36.1	1	3	45	0.00	29.723 
15:20	41.8	41.8	41.8	80	36.1	1	5	68	0.00	29.723 
15:25	41.8	41.8	41.8	80	36.1	1	2	0	0.00	29.723 
15:30	41.8	41.8	41.8	80	36.1	1	4	0	0.00	29.723 
15:35	41.8	41.8	41.8	80	36.1	1	5	45	0.00	29.723 
15:40	41.8	41.8	41.8	80	36.1	1	7	45	0.00	29.723 
15:45	41.8	41.8	41.8	81	36.4	0	4	112	0.00	29.728 
15:50	41.8	41.8	41.8	80	36.1	2	5	45	0.00	29.728 
15:55	41.8	41.8	41.8	81	36.4	1	5	112	0.00	29.728 
16:00	41.8	41.8	41.8	81	36.4	1	6	68	0.00	29.738 
16:05	41.8	41.8	41.8	81	36.4	1	4	22	0.00	29.738 
16:10	41.9	41.9	41.9	81	36.5	0	6	22	0.00	29.738 
16:15	41.9	41.9	41.9	81	36.5	1	5	22	0.00	29.739 
16:20	41.9	41.9	41.9	81	36.5	1	3	90	0.00	29.739 
16:25	41.9	41.9	41.9	82	36.8	1	3	68	0.00	29.739 
16:30	41.8	41.8	41.8	83	37.0	0	3	315	0.00	29.748 
16:35	41.6	41.6	41.6	84	37.1	1	7	112	0.00	29.748 
16:40	41.6	41.6	41.6	84	37.1	1	9	112	0.00	29.748 
16:45	41.5	41.5	41.5	84	37.0	1	4	0	0.00	29.754 
16:50	41.5	41.5	41.5	83	36.7	1	4	112	0.00	29.754 
16:55	41.5	41.5	41.5	84	37.0	2	5	68	0.00	29.754 
17:00	41.5	41.5	41.5	84	37.0	2	5	45	0.00	29.756 
17:05	41.5	41.5	41.5	84	37.0	1	4	45	0.00	29.756 
17:10	41.3	41.3	41.3	85	37.1	1	4	158	0.00	29.756 
17:15	41.2	41.2	41.2	85	37.0	2	4	90	0.00	29.765 
17:20	41.2	41.2	41.2	86	37.3	1	4	112	0.00	29.765 
17:25	41.1	41.1	41.1	87	37.5	1	3	90	0.00	29.765 
17:30	40.9	40.9	40.9	88	37.6	1	3	90	0.00	29.767 
17:35	40.9	40.9	40.9	88	37.6	1	4	45	0.00	29.767 
17:40	40.9	40.9	40.9	89	37.9	0	2	0	0.00	29.767 
17:45	40.9	40.9	40.9	89	37.9	1	3	68	0.00	29.768 
17:50	40.9	40.9	40.9	89	37.9	1	4	112	0.00	29.768 
17:55	40.9	40.9	40.9	89	37.9	1	6	90	0.00	29.768 
18:00	40.9	40.9	40.9	89	37.9	1	3	90	0.00	29.773 
18:05	40.9	40.9	40.9	89	37.9	0	3	22	0.00	29.773 
18:10	40.9	40.9	40.9	89	37.9	0	2	68	0.00	29.773 
18:15	40.8	40.8	40.8	89	37.8	1	4	68	0.00	29.777 
18:20	40.8	40.8	40.8	89	37.8	1	5	45	0.00	29.777 
18:25	40.6	40.6	40.6	89	37.6	1	3	68	0.00	29.777 
18:30	40.6	40.6	40.6	89	37.6	0	3	135	0.00	29.784 
18:35	40.8	40.8	40.8	89	37.8	0	1	135	0.00	29.784 
18:40	40.8	40.8	40.8	89	37.8	0	2	135	0.00	29.784 
18:45	40.8	40.8	40.8	89	37.8	0	2	135	0.00	29.789 
18:50	40.8	40.8	40.8	89	37.8	0	4	22	0.00	29.789 
18:55	40.6	40.6	40.6	89	37.6	0	2	45	0.00	29.789 
19:00	40.8	40.8	40.8	89	37.8	0	2	45	0.00	29.792 
19:05	40.8	40.8	40.8	89	37.8	0	1	45	0.00	29.792 
19:10	40.6	40.6	40.6	89	37.6	0	1	45	0.00	29.792 
19:15	40.6	40.6	40.6	89	37.6	0	3	45	0.00	29.805 
19:20	40.6	40.6	40.6	89	37.6	0	2	45	0.00	29.805 
19:25	40.6	40.6	40.6	89	37.6	0	2	45	0.00	29.805 
19:30	40.6	40.6	40.6	90	37.9	0	1	45	0.00	29.816 
19:35	40.6	40.6	40.6	90	37.9	0	2	45	0.00	29.816 
19:40	40.6	40.6	40.6	90	37.9	0	2	45	0.00	29.816 
19:45	40.5	40.5	40.5	91	38.1	0	4	112	0.00	29.820 
19:50	40.5	40.5	40.5	91	38.1	0	2	112	0.00	29.820 
19:55	40.5	40.5	40.5	91	38.1	0	3	0	0.00	29.820 
20:00	40.5	40.5	40.5	91	38.1	1	4	22	0.00	29.824 
20:05	40.3	40.3	40.3	91	37.9	0	2	22	0.00	29.824 
20:10	40.3	40.3	40.3	91	37.9	0	1	22	0.00	29.824 
20:15	40.3	40.3	40.3	91	37.9	0	1	22	0.00	29.834 
20:20	40.3	40.3	40.3	91	37.9	0	1	22	0.00	29.834 
20:25	40.5	40.5	40.5	91	38.1	0	4	90	0.00	29.834 
20:30	40.5	40.5	40.5	91	38.1	0	4	315	0.00	29.835 
20:35	40.5	40.5	40.5	91	38.1	0	2	315	0.00	29.835 
20:40	40.5	40.5	40.5	91	38.1	0	1	315	0.00	29.835 
20:45	40.5	40.5	40.5	90	37.8	1	2	22	0.00	29.847 
20:50	40.5	40.5	40.5	90	37.8	0	3	22	0.00	29.847 
20:55	40.6	40.6	40.6	90	37.9	1	5	68	0.00	29.847 
21:00	40.6	40.6	40.6	89	37.6	1	3	68	0.00	29.851 
21:05	40.6	40.6	40.6	89	37.6	0	2	112	0.00	29.851 
21:10	40.8	40.8	40.8	89	37.8	0	2	112	0.00	29.851 
21:15	40.8	40.8	40.8	89	37.8	0	3	45	0.00	29.865 
21:20	40.8	40.8	40.8	89	37.8	0	2	90	0.00	29.865 
21:25	40.8	40.8	40.8	88	37.5	0	2	90	0.00	29.865 
21:30	40.8	40.8	40.8	88	37.5	0	0	---	0.00	29.871 
21:35	40.8	40.8	40.8	88	37.5	0	2	68	0.00	29.871 
21:40	40.8	40.8	40.8	88	37.5	0	2	68	0.00	29.871 
21:45	40.8	40.8	40.8	88	37.5	0	1	68	0.00	29.875 
21:50	40.8	40.8	40.8	88	37.5	0	2	68	0.00	29.875 
21:55	40.8	40.8	40.8	88	37.5	0	3	68	0.00	29.875 
22:00	40.8	40.8	40.8	88	37.5	1	3	112	0.00	29.880 
22:05	40.8	40.8	40.8	88	37.5	0	3	158	0.00	29.880 
22:10	40.8	40.8	40.8	87	37.2	0	2	112	0.00	29.880 
22:15	40.8	40.8	40.8	87	37.2	0	4	68	0.00	29.882 
22:20	40.8	40.8	40.8	87	37.2	0	3	68	0.00	29.882 
22:25	40.8	40.8	40.8	87	37.2	0	3	90	0.00	29.882 
22:30	40.8	40.8	40.8	87	37.2	0	2	90	0.00	29.884 
22:35	40.8	40.8	40.8	87	37.2	0	2	338	0.00	29.884 
22:40	40.8	40.8	40.8	87	37.2	0	3	338	0.00	29.884 
22:45	40.8	40.8	40.8	87	37.2	0	3	202	0.00	29.888 
22:50	40.8	40.8	40.8	87	37.2	0	1	202	0.00	29.888 
22:55	40.8	40.8	40.8	87	37.2	0	1	202	0.00	29.888 
23:00	40.8	40.8	40.8	87	37.2	0	1	202	0.00	29.892 
23:05	40.8	40.8	40.8	87	37.2	0	1	68	0.00	29.892 
23:10	40.8	40.8	40.8	87	37.2	0	1	68	0.00	29.892 
23:15	40.8	40.8	40.8	87	37.2	0	1	68	0.00	29.893 
23:20	40.8	40.8	40.8	87	37.2	0	1	68	0.00	29.893 
23:25	40.8	40.8	40.8	87	37.2	0	2	68	0.00	29.893 
23:30	40.8	40.8	40.8	87	37.2	0	3	338	0.00	29.892 
23:35	40.8	40.8	40.8	87	37.2	0	2	0	0.00	29.892 
23:40	40.8	40.8	40.8	87	37.2	0	1	0	0.00	29.892 
23:45	40.8	40.8	40.8	87	37.2	0	2	0	0.00	29.894 
23:50	40.8	40.8	40.8	87	37.2	0	1	0	0.00	29.894 
23:55	40.8	40.8	40.8	87	37.2	0	2	0	0.00	29.894 
20100315 00:00	40.8	40.8	40.8	87	37.2	0	1	0	0.00	29.896 
20100315 00:05	40.6	40.6	40.6	88	37.3	0	1	0	0.00	29.896 
20100315 00:10	40.6	40.6	40.6	88	37.3	0	2	0	0.00	29.896 
20100315 00:15	40.6	40.6	40.6	88	37.3	0	1	0	0.00	29.898 
20100315 00:20	40.8	40.8	40.8	88	37.5	0	2	0	0.00	29.898 
20100315 00:25	40.6	40.6	40.6	88	37.3	0	2	0	0.00	29.898 
20100315 00:30	40.6	40.6	40.6	88	37.3	1	3	22	0.00	29.902 
20100315 00:35	40.6	40.6	40.6	88	37.3	0	2	45	0.00	29.902 
20100315 00:40	40.6	40.6	40.6	89	37.6	0	3	45	0.00	29.902 
20100315 00:45	40.5	40.5	40.5	89	37.5	0	2	315	0.00	29.904 
20100315 00:50	40.3	40.3	40.3	89	37.3	0	3	45	0.00	29.904 
20100315 00:55	40.3	40.3	40.3	89	37.3	0	2	338	0.00	29.904 

CoCoRaHS
IN-AL-39
A2 Web Hosting
Creative Commons License
GoDaddy
search engine by freefind advanced

loaded 2018-11-16 00:44:58 • last modified 2010-11-18 10:43:29
Privacy PolicyDisclaimer
• wx.awcolley.com is powered by PmWiki v.2002016 •
• all content (unless otherwise noted) © 2018 A W Colley